createdAt,value
2023-07-29T00:00:09.301Z,2.40
2023-07-29T00:02:36.423Z,2.67
2023-07-29T00:05:03.558Z,2.70
2023-07-29T00:07:30.764Z,2.63
2023-07-29T00:09:57.827Z,2.50
2023-07-29T00:12:24.914Z,2.30
2023-07-29T00:14:51.962Z,2.55
2023-07-29T00:17:19.076Z,2.50
2023-07-29T00:19:47.234Z,2.97
2023-07-29T00:22:14.276Z,2.70
2023-07-29T00:24:41.794Z,2.45
2023-07-29T00:27:08.911Z,2.20
2023-07-29T00:29:39.670Z,2.60
2023-07-29T00:32:07.121Z,2.83
2023-07-29T00:34:34.297Z,2.30
2023-07-29T00:37:01.858Z,2.72
2023-07-29T00:39:28.943Z,2.40
2023-07-29T00:41:56.224Z,2.58
2023-07-29T00:44:23.424Z,2.55
2023-07-29T00:46:53.906Z,2.53
2023-07-29T00:49:22.302Z,2.55
2023-07-29T00:51:49.447Z,2.50
2023-07-29T00:54:16.596Z,2.72
2023-07-29T00:56:43.938Z,2.47
2023-07-29T00:59:11.210Z,2.50
2023-07-29T01:01:40.003Z,2.45
2023-07-29T01:04:07.165Z,2.60
2023-07-29T01:07:00.936Z,2.58
2023-07-29T01:10:04.719Z,2.20
2023-07-29T01:12:44.324Z,2.08
2023-07-29T01:15:34.799Z,2.30
2023-07-29T01:18:12.668Z,2.30
2023-07-29T01:20:44.208Z,2.03
2023-07-29T01:23:11.311Z,2.35
2023-07-29T01:25:38.675Z,2.30
2023-07-29T01:28:05.953Z,2.25
2023-07-29T01:30:42.215Z,2.40
2023-07-29T01:33:21.869Z,2.30
2023-07-29T01:36:17.208Z,2.00
2023-07-29T01:38:45.832Z,2.20
2023-07-29T01:41:13.914Z,2.17
2023-07-29T01:43:45.426Z,2.55
2023-07-29T01:46:13.525Z,2.30
2023-07-29T01:48:40.999Z,2.60
2023-07-29T01:51:09.012Z,2.33
2023-07-29T01:53:36.360Z,2.30
2023-07-29T01:56:04.039Z,2.08
2023-07-29T01:58:31.199Z,2.10
2023-07-29T02:00:58.993Z,2.10
2023-07-29T02:03:26.112Z,2.13
2023-07-29T02:05:53.161Z,2.42
2023-07-29T02:08:20.293Z,2.08
2023-07-29T02:10:47.557Z,2.25
2023-07-29T02:13:14.830Z,2.28
2023-07-29T02:15:41.975Z,2.30
2023-07-29T02:18:09.124Z,2.42
2023-07-29T02:20:36.200Z,2.60
2023-07-29T02:23:03.308Z,1.90
2023-07-29T02:25:30.456Z,2.65
2023-07-29T02:27:57.752Z,2.20
2023-07-29T02:30:24.874Z,2.47
2023-07-29T02:32:52.073Z,2.15
2023-07-29T02:35:19.317Z,2.00
2023-07-29T02:37:46.518Z,2.42
2023-07-29T02:40:14.016Z,2.40
2023-07-29T02:42:41.138Z,2.28
2023-07-29T02:45:11.065Z,2.33
2023-07-29T02:47:39.466Z,2.50
2023-07-29T02:50:07.205Z,2.47
2023-07-29T02:52:34.310Z,2.58
2023-07-29T02:55:01.430Z,2.22
2023-07-29T02:57:28.856Z,2.45
2023-07-29T02:59:55.879Z,2.80
2023-07-29T03:02:23.790Z,2.50
2023-07-29T03:04:51.336Z,2.33
2023-07-29T03:07:18.516Z,2.50
2023-07-29T03:09:46.450Z,2.13
2023-07-29T03:12:13.583Z,2.30
2023-07-29T03:14:42.399Z,2.22
2023-07-29T03:17:09.602Z,2.13
2023-07-29T03:19:36.654Z,2.47
2023-07-29T03:22:03.836Z,2.30
2023-07-29T03:24:30.964Z,2.00
2023-07-29T03:26:58.114Z,1.85
2023-07-29T03:29:25.259Z,2.28
2023-07-29T03:31:52.329Z,2.03
2023-07-29T03:34:19.549Z,2.20
2023-07-29T03:36:49.085Z,2.15
2023-07-29T03:39:16.394Z,2.20
2023-07-29T03:41:43.473Z,2.10
2023-07-29T03:44:10.550Z,1.98
2023-07-29T03:46:38.091Z,2.08
2023-07-29T03:49:05.715Z,2.00
2023-07-29T03:51:32.838Z,2.60
2023-07-29T03:53:59.913Z,2.53
2023-07-29T03:56:27.076Z,2.47
2023-07-29T03:58:55.172Z,2.25
2023-07-29T04:01:22.273Z,2.30
2023-07-29T04:03:49.544Z,2.40
2023-07-29T04:06:16.673Z,2.40
2023-07-29T04:08:43.777Z,2.28
2023-07-29T04:11:10.980Z,2.42
2023-07-29T04:13:38.927Z,2.40
2023-07-29T04:16:07.125Z,2.28
2023-07-29T04:18:34.344Z,2.55
2023-07-29T04:21:01.384Z,2.38
2023-07-29T04:23:28.473Z,2.20
2023-07-29T04:25:55.588Z,2.20
2023-07-29T04:28:22.729Z,2.22
2023-07-29T04:30:49.808Z,2.35
2023-07-29T04:33:16.946Z,2.28
2023-07-29T04:35:43.987Z,2.47
2023-07-29T04:38:11.079Z,2.45
2023-07-29T04:40:38.228Z,2.20
2023-07-29T04:43:05.315Z,2.05
2023-07-29T04:45:32.775Z,2.10
2023-07-29T04:48:00.540Z,2.33
2023-07-29T04:50:27.668Z,2.55
2023-07-29T04:52:54.792Z,2.78
2023-07-29T04:55:22.264Z,2.30
2023-07-29T04:57:49.388Z,2.25
2023-07-29T05:00:16.704Z,2.30
2023-07-29T05:02:43.883Z,2.22
2023-07-29T05:05:10.984Z,1.90
2023-07-29T05:07:38.291Z,2.03
2023-07-29T05:10:06.046Z,1.92
2023-07-29T05:12:34.095Z,1.95
2023-07-29T05:15:01.532Z,2.00
2023-07-29T05:17:28.952Z,1.90
2023-07-29T05:19:56.121Z,2.08
2023-07-29T05:22:23.288Z,1.90
2023-07-29T05:24:50.461Z,1.70
2023-07-29T05:27:17.573Z,2.38
2023-07-29T05:29:44.619Z,2.08
2023-07-29T05:32:11.876Z,1.80
2023-07-29T05:34:42.364Z,1.88
2023-07-29T05:37:09.460Z,1.60
2023-07-29T05:39:36.671Z,1.83
2023-07-29T05:42:04.056Z,1.70
2023-07-29T05:44:33.852Z,1.70
2023-07-29T05:47:01.001Z,1.70
2023-07-29T05:49:28.215Z,1.85
2023-07-29T05:51:55.292Z,1.90
2023-07-29T05:54:22.588Z,1.90
2023-07-29T05:56:49.740Z,1.73
2023-07-29T05:59:16.862Z,1.90
2023-07-29T06:01:44.029Z,1.73
2023-07-29T06:04:11.108Z,1.80
2023-07-29T06:06:38.480Z,2.22
2023-07-29T06:09:05.914Z,1.73
2023-07-29T06:11:33.022Z,1.75
2023-07-29T06:14:00.206Z,1.80
2023-07-29T06:16:27.368Z,1.67
2023-07-29T06:18:54.585Z,1.80
2023-07-29T06:21:21.728Z,2.00
2023-07-29T06:23:49.272Z,1.77
2023-07-29T06:26:16.391Z,1.80
2023-07-29T06:28:43.483Z,1.73
2023-07-29T06:31:10.680Z,1.80
2023-07-29T06:33:37.769Z,1.95
2023-07-29T06:36:05.217Z,2.05
2023-07-29T06:38:47.982Z,1.75
2023-07-29T06:41:16.434Z,1.93
2023-07-29T06:43:44.564Z,2.08
2023-07-29T06:46:11.876Z,1.90
2023-07-29T06:48:38.953Z,2.05
2023-07-29T06:51:06.008Z,1.80
2023-07-29T06:53:34.972Z,2.10
2023-07-29T06:56:02.522Z,1.90
2023-07-29T06:58:29.685Z,2.05
2023-07-29T07:00:57.754Z,2.08
2023-07-29T07:03:29.575Z,2.30
2023-07-29T07:05:56.828Z,2.08
2023-07-29T07:08:24.070Z,2.10
2023-07-29T07:10:51.160Z,2.30
2023-07-29T07:13:18.378Z,2.30
2023-07-29T07:15:46.471Z,2.35
2023-07-29T07:18:13.587Z,2.10
2023-07-29T07:20:40.780Z,2.20
2023-07-29T07:23:12.051Z,2.20
2023-07-29T07:25:39.109Z,2.40
2023-07-29T07:28:06.400Z,2.28
2023-07-29T07:30:33.536Z,2.60
2023-07-29T07:33:00.731Z,2.45
2023-07-29T07:35:28.478Z,2.38
2023-07-29T07:37:55.534Z,2.17
2023-07-29T07:40:22.678Z,2.28
2023-07-29T07:42:49.791Z,2.17
2023-07-29T07:45:17.078Z,2.22
2023-07-29T07:47:44.217Z,2.30
2023-07-29T07:50:11.375Z,2.58
2023-07-29T07:52:38.499Z,2.45
2023-07-29T07:55:06.048Z,2.08
2023-07-29T07:57:33.119Z,2.25
2023-07-29T08:00:00.225Z,2.25
2023-07-29T08:02:27.306Z,2.30
2023-07-29T08:04:54.435Z,2.35
2023-07-29T08:07:21.501Z,2.20
2023-07-29T08:09:48.711Z,1.98
2023-07-29T08:12:17.030Z,2.67
2023-07-29T08:14:46.029Z,2.10
2023-07-29T08:17:13.158Z,1.85
2023-07-29T08:19:40.223Z,1.80
2023-07-29T08:22:07.321Z,2.25
2023-07-29T08:24:35.452Z,2.17
2023-07-29T08:27:02.620Z,2.15
2023-07-29T08:29:29.828Z,2.72
2023-07-29T08:31:56.941Z,1.95
2023-07-29T08:34:24.107Z,2.10
2023-07-29T08:36:51.224Z,2.28
2023-07-29T08:39:19.283Z,2.10
2023-07-29T08:42:06.363Z,2.17
2023-07-29T08:44:56.107Z,1.90
2023-07-29T08:47:23.255Z,2.10
2023-07-29T08:49:53.477Z,2.45
2023-07-29T08:52:21.742Z,2.40
2023-07-29T08:54:49.007Z,2.00
2023-07-29T08:57:16.457Z,1.80
2023-07-29T08:59:43.868Z,2.30
2023-07-29T09:02:10.945Z,2.00
2023-07-29T09:04:38.032Z,2.65
2023-07-29T09:07:06.712Z,2.47
2023-07-29T09:09:33.881Z,1.90
2023-07-29T09:12:01.180Z,2.05
2023-07-29T09:14:29.341Z,2.20
2023-07-29T09:16:56.553Z,2.40
2023-07-29T09:19:28.446Z,2.28
2023-07-29T09:21:55.594Z,2.45
2023-07-29T09:24:22.903Z,2.28
2023-07-29T09:26:51.952Z,2.42
2023-07-29T09:29:23.584Z,2.15
2023-07-29T09:31:51.198Z,2.25
2023-07-29T09:34:19.075Z,2.40
2023-07-29T09:36:46.411Z,2.40
2023-07-29T09:39:16.985Z,2.35
2023-07-29T09:41:50.474Z,2.40
2023-07-29T09:44:17.573Z,2.30
2023-07-29T09:46:48.716Z,2.20
2023-07-29T09:49:15.872Z,2.20
2023-07-29T09:51:43.277Z,2.40
2023-07-29T09:54:12.157Z,2.05
2023-07-29T09:56:46.210Z,2.00
2023-07-29T09:59:13.920Z,2.20
2023-07-29T10:01:43.427Z,2.03
2023-07-29T10:04:13.659Z,2.38
2023-07-29T10:06:41.605Z,2.25
2023-07-29T10:09:09.183Z,2.20
2023-07-29T10:11:38.017Z,2.17
2023-07-29T10:14:08.939Z,2.20
2023-07-29T10:16:39.829Z,2.38
2023-07-29T10:19:10.002Z,2.33
2023-07-29T10:21:40.635Z,2.30
2023-07-29T10:24:14.200Z,2.20
2023-07-29T10:29:13.833Z,3.00
2023-07-29T10:31:43.359Z,2.33
2023-07-29T10:34:12.354Z,2.42
2023-07-29T10:36:39.914Z,2.63
2023-07-29T10:39:09.101Z,2.55
2023-07-29T10:42:02.202Z,2.40
2023-07-29T10:44:41.564Z,2.38
2023-07-29T10:47:15.785Z,2.67
2023-07-29T10:49:47.377Z,2.60
2023-07-29T10:52:16.379Z,2.40
2023-07-29T10:54:44.393Z,2.58
2023-07-29T10:57:31.846Z,2.50
2023-07-29T10:59:58.964Z,2.30
2023-07-29T11:02:44.020Z,2.38
2023-07-29T11:05:20.816Z,2.30
2023-07-29T11:07:49.981Z,2.30
2023-07-29T11:10:17.616Z,2.85
2023-07-29T11:12:53.270Z,2.42
2023-07-29T11:15:22.601Z,2.80
2023-07-29T11:17:52.794Z,2.38
2023-07-29T11:20:25.410Z,2.55
2023-07-29T11:22:54.605Z,2.47
2023-07-29T11:25:24.034Z,2.25
2023-07-29T11:27:55.581Z,2.20
2023-07-29T11:30:24.402Z,2.35
2023-07-29T11:32:51.916Z,2.42
2023-07-29T11:35:20.327Z,2.50
2023-07-29T11:37:49.390Z,2.30
2023-07-29T11:40:22.151Z,2.33
2023-07-29T11:42:53.774Z,2.45
2023-07-29T11:45:23.072Z,2.50
2023-07-29T11:47:51.388Z,2.15
2023-07-29T11:50:18.555Z,2.53
2023-07-29T11:52:48.133Z,2.10
2023-07-29T11:55:16.763Z,2.20
2023-07-29T11:57:45.417Z,2.47
2023-07-29T12:00:13.998Z,2.00
2023-07-29T12:02:45.715Z,2.47
2023-07-29T12:05:14.653Z,2.80
2023-07-29T12:07:44.064Z,2.35
2023-07-29T12:10:12.290Z,2.47
2023-07-29T12:12:46.544Z,3.03
2023-07-29T12:15:13.747Z,2.20
2023-07-29T12:17:44.270Z,2.83
2023-07-29T12:20:12.299Z,2.30
2023-07-29T12:22:40.171Z,2.42
2023-07-29T12:25:08.443Z,2.42
2023-07-29T12:27:35.654Z,2.70
2023-07-29T12:30:06.536Z,3.00
2023-07-29T12:32:33.718Z,3.10
2023-07-29T12:35:00.864Z,3.78
2023-07-29T12:37:34.696Z,3.70
2023-07-29T12:40:02.132Z,3.63
2023-07-29T12:42:29.371Z,2.72
2023-07-29T12:44:56.470Z,2.63
2023-07-29T12:47:23.716Z,2.80
2023-07-29T12:49:52.464Z,3.33
2023-07-29T12:52:19.561Z,3.05
2023-07-29T12:54:46.684Z,3.70
2023-07-29T12:57:13.786Z,3.00
2023-07-29T12:59:40.893Z,3.22
2023-07-29T13:02:08.324Z,3.03
2023-07-29T13:04:35.508Z,3.28
2023-07-29T13:07:02.636Z,2.78
2023-07-29T13:09:29.711Z,3.17
2023-07-29T13:11:56.852Z,3.08
2023-07-29T13:14:23.951Z,2.75
2023-07-29T13:16:51.027Z,2.75
2023-07-29T13:19:19.735Z,2.92
2023-07-29T13:21:46.835Z,3.20
2023-07-29T13:24:14.013Z,2.90
2023-07-29T13:26:41.180Z,3.00
2023-07-29T13:29:09.921Z,3.00
2023-07-29T13:31:37.535Z,2.65
2023-07-29T13:34:04.672Z,2.90
2023-07-29T13:36:31.872Z,2.65
2023-07-29T13:38:58.992Z,3.08
2023-07-29T13:41:26.117Z,3.08
2023-07-29T13:43:53.149Z,2.63
2023-07-29T13:46:22.649Z,2.90
2023-07-29T13:48:49.860Z,2.72
2023-07-29T13:51:16.962Z,2.55
2023-07-29T13:53:44.329Z,2.83
2023-07-29T13:56:11.386Z,2.50
2023-07-29T13:58:38.508Z,2.63
2023-07-29T14:01:05.596Z,2.80
2023-07-29T14:03:32.712Z,2.70
2023-07-29T14:05:59.862Z,3.22
2023-07-29T14:08:26.958Z,2.70
2023-07-29T14:10:54.019Z,2.50
2023-07-29T14:13:21.212Z,2.92
2023-07-29T14:15:48.309Z,2.38
2023-07-29T14:18:15.396Z,2.50
2023-07-29T14:20:42.638Z,2.40
2023-07-29T14:23:09.723Z,2.70
2023-07-29T14:25:36.924Z,2.88
2023-07-29T14:28:04.199Z,2.80
2023-07-29T14:30:31.364Z,2.60
2023-07-29T14:32:58.532Z,2.80
2023-07-29T14:35:25.698Z,2.75
2023-07-29T14:37:52.753Z,2.38
2023-07-29T14:40:19.993Z,2.88
2023-07-29T14:42:47.043Z,2.60
2023-07-29T14:45:14.118Z,2.58
2023-07-29T14:47:41.394Z,2.60
2023-07-29T14:50:08.798Z,2.78
2023-07-29T14:52:35.871Z,2.42
2023-07-29T14:55:03.087Z,3.20
2023-07-29T14:57:30.146Z,2.55
2023-07-29T14:59:57.302Z,2.70
2023-07-29T15:02:25.027Z,2.55
2023-07-29T15:04:52.364Z,2.58
2023-07-29T15:07:19.422Z,2.70
2023-07-29T15:09:46.694Z,2.55
2023-07-29T15:12:13.817Z,2.95
2023-07-29T15:14:40.910Z,2.70
2023-07-29T15:17:08.249Z,2.40
2023-07-29T15:19:35.416Z,2.60
2023-07-29T15:22:02.550Z,2.30
2023-07-29T15:24:31.868Z,2.60
2023-07-29T15:26:59.167Z,2.60
2023-07-29T15:29:26.291Z,2.72
2023-07-29T15:31:53.431Z,2.55
2023-07-29T15:34:20.622Z,2.40
2023-07-29T15:36:47.765Z,2.25
2023-07-29T15:39:14.797Z,2.70
2023-07-29T15:41:41.939Z,2.60
2023-07-29T15:44:09.252Z,2.30
2023-07-29T15:46:36.780Z,2.60
2023-07-29T15:49:04.260Z,2.45
2023-07-29T15:51:31.347Z,2.40
2023-07-29T15:53:58.442Z,2.47
2023-07-29T15:56:25.677Z,2.45
2023-07-29T15:58:52.753Z,2.35
2023-07-29T16:01:19.970Z,2.03
2023-07-29T16:03:47.223Z,2.53
2023-07-29T16:06:14.334Z,2.45
2023-07-29T16:08:44.746Z,2.30
2023-07-29T16:11:11.830Z,2.60
2023-07-29T16:13:38.939Z,2.38
2023-07-29T16:16:06.245Z,2.50
2023-07-29T16:18:33.492Z,2.50
2023-07-29T16:21:03.132Z,2.50
2023-07-29T16:23:31.892Z,2.20
2023-07-29T16:26:00.259Z,2.60
2023-07-29T16:28:27.854Z,2.45
2023-07-29T16:30:55.757Z,2.33
2023-07-29T16:33:22.845Z,2.30
2023-07-29T16:35:50.003Z,2.45
2023-07-29T16:38:17.452Z,2.58
2023-07-29T16:41:01.390Z,2.47
2023-07-29T16:43:31.690Z,2.20
2023-07-29T16:45:58.848Z,2.47
2023-07-29T16:48:26.045Z,2.30
2023-07-29T16:50:53.108Z,2.20
2023-07-29T16:53:20.436Z,2.40
2023-07-29T16:55:47.602Z,2.30
2023-07-29T16:58:14.721Z,2.40
2023-07-29T17:00:41.917Z,2.40
2023-07-29T17:03:09.067Z,2.20
2023-07-29T17:05:36.406Z,2.28
2023-07-29T17:08:03.616Z,2.20
2023-07-29T17:10:30.713Z,2.53
2023-07-29T17:12:57.813Z,2.60
2023-07-29T17:15:25.061Z,2.25
2023-07-29T17:17:52.319Z,2.53
2023-07-29T17:20:21.185Z,2.47
2023-07-29T17:22:48.410Z,2.50
2023-07-29T17:25:15.603Z,2.45
2023-07-29T17:27:42.677Z,2.30
2023-07-29T17:30:10.421Z,2.67
2023-07-29T17:32:37.507Z,2.60
2023-07-29T17:35:04.925Z,2.20
2023-07-29T17:37:32.074Z,2.40
2023-07-29T17:39:59.187Z,2.30
2023-07-29T17:42:26.341Z,2.28
2023-07-29T17:44:53.954Z,2.30
2023-07-29T17:47:21.123Z,2.40
2023-07-29T17:49:48.186Z,2.00
2023-07-29T17:52:15.295Z,2.55
2023-07-29T17:54:42.644Z,2.40
2023-07-29T17:57:09.748Z,2.35
2023-07-29T17:59:36.902Z,2.40
2023-07-29T18:02:04.150Z,2.28
2023-07-29T18:04:31.287Z,2.90
2023-07-29T18:06:58.986Z,2.67
2023-07-29T18:09:26.215Z,2.25
2023-07-29T18:11:54.711Z,2.50
2023-07-29T18:14:23.297Z,2.50
2023-07-29T18:16:50.837Z,2.40
2023-07-29T18:19:19.002Z,2.25
2023-07-29T18:21:46.241Z,2.67
2023-07-29T18:24:13.317Z,2.70
2023-07-29T18:26:41.327Z,2.40
2023-07-29T18:29:09.324Z,2.85
2023-07-29T18:31:37.392Z,2.70
2023-07-29T18:34:06.827Z,2.50
2023-07-29T18:36:35.376Z,2.50
2023-07-29T18:39:02.931Z,2.88
2023-07-29T18:41:32.128Z,2.47
2023-07-29T18:43:59.305Z,2.33
2023-07-29T18:46:31.116Z,2.10
2023-07-29T18:49:00.180Z,2.38
2023-07-29T18:51:27.552Z,2.78
2023-07-29T18:53:54.681Z,2.40
2023-07-29T18:56:21.825Z,2.58
2023-07-29T18:58:48.883Z,2.60
2023-07-29T19:01:16.896Z,2.40
2023-07-29T19:03:44.852Z,2.42
2023-07-29T19:06:12.007Z,2.20
2023-07-29T19:08:39.183Z,2.40
2023-07-29T19:11:06.531Z,2.40
2023-07-29T19:13:33.663Z,2.75
2023-07-29T19:16:03.149Z,2.90
2023-07-29T19:18:30.298Z,2.50
2023-07-29T19:20:57.382Z,2.35
2023-07-29T19:23:24.581Z,2.60
2023-07-29T19:25:52.675Z,2.13
2023-07-29T19:28:19.974Z,2.85
2023-07-29T19:30:47.186Z,2.80
2023-07-29T19:33:14.345Z,2.50
2023-07-29T19:35:41.428Z,2.25
2023-07-29T19:38:08.489Z,2.58
2023-07-29T19:40:38.231Z,2.75
2023-07-29T19:43:05.368Z,2.80
2023-07-29T19:45:32.498Z,2.47
2023-07-29T19:48:04.109Z,2.58
2023-07-29T19:50:31.228Z,2.65
2023-07-29T19:52:58.330Z,2.75
2023-07-29T19:55:25.781Z,2.85
2023-07-29T19:57:52.839Z,2.45
2023-07-29T20:00:20.252Z,3.03
2023-07-29T20:02:47.426Z,2.83
2023-07-29T20:05:14.591Z,2.45
2023-07-29T20:07:41.800Z,2.90
2023-07-29T20:10:09.421Z,2.65
2023-07-29T20:12:36.640Z,2.58
2023-07-29T20:15:04.619Z,2.40
2023-07-29T20:17:32.003Z,2.50
2023-07-29T20:19:59.287Z,2.30
2023-07-29T20:22:26.403Z,2.78
2023-07-29T20:24:53.768Z,2.47
2023-07-29T20:27:20.918Z,2.95
2023-07-29T20:29:48.174Z,2.47
2023-07-29T20:32:15.290Z,2.42
2023-07-29T20:34:42.467Z,2.60
2023-07-29T20:37:09.639Z,2.35
2023-07-29T20:39:36.976Z,3.08
2023-07-29T20:42:04.418Z,2.50
2023-07-29T20:44:31.638Z,2.50
2023-07-29T20:46:58.719Z,2.55
2023-07-29T20:49:25.820Z,2.40
2023-07-29T20:51:52.928Z,2.50
2023-07-29T20:54:19.971Z,2.47
2023-07-29T20:56:47.014Z,2.75
2023-07-29T20:59:14.179Z,2.53
2023-07-29T21:01:41.581Z,2.70
2023-07-29T21:04:08.869Z,2.50
2023-07-29T21:06:36.797Z,2.35
2023-07-29T21:09:05.364Z,2.65
2023-07-29T21:11:32.602Z,2.50
2023-07-29T21:13:59.982Z,2.88
2023-07-29T21:16:27.246Z,2.90
2023-07-29T21:18:54.450Z,2.97
2023-07-29T21:21:21.646Z,2.70
2023-07-29T21:23:48.798Z,3.08
2023-07-29T21:26:15.924Z,4.40
2023-07-29T21:28:43.031Z,5.10
2023-07-29T21:31:10.616Z,4.60
2023-07-29T21:33:39.032Z,3.90
2023-07-29T21:36:06.708Z,3.85
2023-07-29T21:38:33.872Z,3.15
2023-07-29T21:41:01.256Z,3.22
2023-07-29T21:43:28.422Z,2.85
2023-07-29T21:45:55.624Z,3.17
2023-07-29T21:48:22.816Z,2.63
2023-07-29T21:50:51.342Z,2.80
2023-07-29T21:53:18.740Z,2.58
2023-07-29T21:55:45.965Z,2.58
2023-07-29T21:58:13.082Z,2.92
2023-07-29T22:00:40.993Z,2.65
2023-07-29T22:03:08.118Z,2.63
2023-07-29T22:05:35.411Z,2.65
2023-07-29T22:08:04.650Z,2.70
2023-07-29T22:10:32.136Z,2.67
2023-07-29T22:12:59.929Z,2.58
2023-07-29T22:15:27.069Z,2.40
2023-07-29T22:17:54.417Z,2.60
2023-07-29T22:20:21.654Z,2.65
2023-07-29T22:22:48.787Z,3.00
2023-07-29T22:25:16.192Z,3.08
2023-07-29T22:27:43.296Z,2.83
2023-07-29T22:30:10.766Z,2.58
2023-07-29T22:32:38.021Z,2.83
2023-07-29T22:35:05.594Z,2.67
2023-07-29T22:37:32.808Z,2.55
2023-07-29T22:39:59.883Z,2.40
2023-07-29T22:42:27.083Z,2.65
2023-07-29T22:44:54.248Z,2.60
2023-07-29T22:47:21.397Z,3.00
2023-07-29T22:49:49.192Z,2.70
2023-07-29T22:52:16.284Z,2.53
2023-07-29T22:54:43.467Z,2.53
2023-07-29T22:57:10.553Z,2.40
2023-07-29T22:59:37.676Z,2.60
2023-07-29T23:02:04.999Z,2.30
2023-07-29T23:04:32.090Z,2.95
2023-07-29T23:06:59.840Z,2.60
2023-07-29T23:09:26.991Z,3.35
2023-07-29T23:11:54.108Z,2.70
2023-07-29T23:14:21.251Z,2.65
2023-07-29T23:16:48.504Z,2.72
2023-07-29T23:19:15.646Z,2.85
2023-07-29T23:21:42.837Z,2.90
2023-07-29T23:24:10.124Z,2.95
2023-07-29T23:26:37.215Z,3.40
2023-07-29T23:29:04.377Z,2.63
2023-07-29T23:31:31.537Z,3.13
2023-07-29T23:33:58.744Z,3.58
2023-07-29T23:36:25.968Z,2.70
2023-07-29T23:38:53.052Z,2.90
2023-07-29T23:41:20.147Z,3.00
2023-07-29T23:43:47.210Z,3.25
2023-07-29T23:46:14.418Z,2.67
2023-07-29T23:48:41.618Z,2.92
2023-07-29T23:51:08.667Z,2.70
2023-07-29T23:53:35.769Z,2.97
2023-07-29T23:56:02.818Z,2.65
2023-07-29T23:58:29.927Z,2.60
